LNR032 TNCS-TFFJ
Flight info
| Callsign | LNR032 |
|---|---|
| Flight time | 0h 12m |
| Altitude | 5500 |
| Route | VFR |
| Aircraft | C208/L-SBDFGRY/S |
Departure
| Time | 2026-04-26 13:05 |
|---|---|
| Airport | Juancho E. Yrausquin Airport (TNCS) |
Arrival
| Time | 2026-04-26 13:18 |
|---|---|
| Airport | St. Jean Airport (TFFJ) |
| Time | Latitude | Longitude | Altitude | Speed | Heading |
|---|---|---|---|---|---|
| 2026-04-26 12:59 | 17.64463 | -63.22047 | 131 ft | 0 kts | 22° |
| 2026-04-26 13:02 | 17.64464 | -63.22047 | 129 ft | 1 kts | 22° |
| 2026-04-26 13:03 | 17.64495 | -63.22034 | 131 ft | 9 kts | 22° |
| 2026-04-26 13:03 | 17.64535 | -63.22041 | 133 ft | 8 kts | 288° |
| 2026-04-26 13:03 | 17.64559 | -63.22107 | 138 ft | 11 kts | 292° |
| 2026-04-26 13:03 | 17.64588 | -63.22187 | 144 ft | 10 kts | 288° |
| 2026-04-26 13:04 | 17.64602 | -63.22230 | 143 ft | 5 kts | 28° |
| 2026-04-26 13:04 | 17.64601 | -63.22215 | 143 ft | 0 kts | 110° |
| 2026-04-26 13:04 | 17.64523 | -63.22019 | 131 ft | 58 kts | 113° |
| 2026-04-26 13:05 | 17.64344 | -63.21529 | 206 ft | 82 kts | 106° |
| 2026-04-26 13:05 | 17.64384 | -63.20886 | 292 ft | 105 kts | 60° |
| 2026-04-26 13:05 | 17.64950 | -63.20337 | 474 ft | 118 kts | 38° |
| 2026-04-26 13:05 | 17.65606 | -63.19767 | 663 ft | 129 kts | 53° |
| 2026-04-26 13:06 | 17.66118 | -63.18984 | 930 ft | 132 kts | 57° |
| 2026-04-26 13:06 | 17.66659 | -63.18210 | 1187 ft | 134 kts | 56° |
| 2026-04-26 13:06 | 17.67208 | -63.17405 | 1445 ft | 138 kts | 56° |
| 2026-04-26 13:06 | 17.67772 | -63.16571 | 1700 ft | 141 kts | 57° |
| 2026-04-26 13:07 | 17.68349 | -63.15729 | 1942 ft | 143 kts | 56° |
| 2026-04-26 13:07 | 17.68945 | -63.14884 | 2191 ft | 144 kts | 56° |
| 2026-04-26 13:07 | 17.69541 | -63.14033 | 2430 ft | 144 kts | 56° |
| 2026-04-26 13:07 | 17.70129 | -63.13180 | 2679 ft | 145 kts | 55° |
| 2026-04-26 13:08 | 17.70732 | -63.12326 | 2928 ft | 146 kts | 55° |
| 2026-04-26 13:08 | 17.71342 | -63.11478 | 3169 ft | 144 kts | 57° |
| 2026-04-26 13:08 | 17.71936 | -63.10634 | 3414 ft | 143 kts | 56° |
| 2026-04-26 13:08 | 17.72544 | -63.09754 | 3484 ft | 156 kts | 56° |
| 2026-04-26 13:09 | 17.72974 | -63.09132 | 3495 ft | 162 kts | 56° |
| 2026-04-26 13:09 | 17.73657 | -63.08151 | 3499 ft | 171 kts | 55° |
| 2026-04-26 13:09 | 17.74366 | -63.07125 | 3498 ft | 175 kts | 57° |
| 2026-04-26 13:09 | 17.75079 | -63.06089 | 3495 ft | 175 kts | 55° |
| 2026-04-26 13:10 | 17.75792 | -63.05062 | 3501 ft | 174 kts | 56° |
| 2026-04-26 13:10 | 17.76503 | -63.04039 | 3499 ft | 173 kts | 56° |
| 2026-04-26 13:10 | 17.77204 | -63.03013 | 3500 ft | 173 kts | 57° |
| 2026-04-26 13:10 | 17.77908 | -63.01985 | 3501 ft | 174 kts | 56° |
| 2026-04-26 13:11 | 17.78620 | -63.00955 | 3505 ft | 175 kts | 55° |
| 2026-04-26 13:11 | 17.79336 | -62.99923 | 3505 ft | 175 kts | 55° |
| 2026-04-26 13:11 | 17.80052 | -62.98890 | 3505 ft | 175 kts | 54° |
| 2026-04-26 13:11 | 17.80982 | -62.98061 | 3506 ft | 177 kts | 35° |
| 2026-04-26 13:12 | 17.82035 | -62.97381 | 3504 ft | 178 kts | 33° |
| 2026-04-26 13:12 | 17.83049 | -62.96718 | 3492 ft | 160 kts | 33° |
| 2026-04-26 13:12 | 17.83947 | -62.96142 | 3377 ft | 146 kts | 34° |
| 2026-04-26 13:12 | 17.84808 | -62.95594 | 2982 ft | 143 kts | 35° |
| 2026-04-26 13:13 | 17.85655 | -62.95067 | 2606 ft | 141 kts | 34° |
| 2026-04-26 13:13 | 17.86502 | -62.94531 | 2232 ft | 142 kts | 37° |
| 2026-04-26 13:13 | 17.87286 | -62.93947 | 1999 ft | 131 kts | 38° |
| 2026-04-26 13:13 | 17.87995 | -62.93455 | 2013 ft | 111 kts | 38° |
| 2026-04-26 13:14 | 17.88592 | -62.93055 | 2002 ft | 95 kts | 37° |
| 2026-04-26 13:14 | 17.89142 | -62.92684 | 1998 ft | 96 kts | 37° |
| 2026-04-26 13:14 | 17.89711 | -62.92287 | 2007 ft | 100 kts | 36° |
| 2026-04-26 13:14 | 17.90297 | -62.91871 | 1985 ft | 104 kts | 42° |
| 2026-04-26 13:15 | 17.90752 | -62.91316 | 1941 ft | 100 kts | 68° |
| 2026-04-26 13:15 | 17.90743 | -62.90608 | 1969 ft | 94 kts | 103° |
| 2026-04-26 13:15 | 17.90617 | -62.89945 | 1853 ft | 87 kts | 101° |
| 2026-04-26 13:15 | 17.90561 | -62.89338 | 1720 ft | 77 kts | 94° |
| 2026-04-26 13:16 | 17.90549 | -62.88757 | 1548 ft | 81 kts | 92° |
| 2026-04-26 13:16 | 17.90525 | -62.88191 | 1424 ft | 77 kts | 98° |
| 2026-04-26 13:16 | 17.90506 | -62.87625 | 1258 ft | 80 kts | 94° |
| 2026-04-26 13:16 | 17.90481 | -62.87038 | 1075 ft | 79 kts | 96° |
| 2026-04-26 13:17 | 17.90395 | -62.85933 | 698 ft | 77 kts | 91° |
| 2026-04-26 13:17 | 17.90418 | -62.85365 | 422 ft | 80 kts | 91° |
| 2026-04-26 13:18 | 17.90439 | -62.84297 | 32 ft | 52 kts | 87° |
| 2026-04-26 13:18 | 17.90438 | -62.84162 | 22 ft | 3 kts | 110° |
| 2026-04-26 13:18 | 17.90442 | -62.84222 | 27 ft | 11 kts | 271° |
| 2026-04-26 13:19 | 17.90437 | -62.84312 | 33 ft | 11 kts | 267° |
| 2026-04-26 13:19 | 17.90432 | -62.84382 | 37 ft | 9 kts | 220° |
| 2026-04-26 13:19 | 17.90393 | -62.84417 | 40 ft | 9 kts | 267° |
| 2026-04-26 13:19 | 17.90374 | -62.84464 | 43 ft | 8 kts | 248° |
| 2026-04-26 13:20 | 17.90372 | -62.84517 | 47 ft | 4 kts | 269° |
| 2026-04-26 13:20 | 17.90372 | -62.84531 | 48 ft | 0 kts | 269° |